sensor_id;sensor_type;location;lat;lon;timestamp;P1;durP1;ratioP1;P2;durP2;ratioP2
12958;SDS011;6544;51.666;6.634;2022-10-17T00:01:41;6.45;;;4.90;;
12958;SDS011;6544;51.666;6.634;2022-10-17T00:04:08;9.52;;;5.50;;
12958;SDS011;6544;51.666;6.634;2022-10-17T00:06:35;11.10;;;4.90;;
12958;SDS011;6544;51.666;6.634;2022-10-17T00:09:03;8.38;;;5.00;;
12958;SDS011;6544;51.666;6.634;2022-10-17T00:11:30;6.35;;;5.30;;
12958;SDS011;6544;51.666;6.634;2022-10-17T00:13:57;5.82;;;4.93;;
12958;SDS011;6544;51.666;6.634;2022-10-17T00:16:24;7.95;;;4.55;;
12958;SDS011;6544;51.666;6.634;2022-10-17T00:18:54;6.65;;;5.30;;
12958;SDS011;6544;51.666;6.634;2022-10-17T00:21:21;8.43;;;5.13;;
12958;SDS011;6544;51.666;6.634;2022-10-17T00:23:50;7.50;;;4.65;;
12958;SDS011;6544;51.666;6.634;2022-10-17T00:26:18;6.18;;;5.28;;
12958;SDS011;6544;51.666;6.634;2022-10-17T00:28:45;11.65;;;5.57;;
12958;SDS011;6544;51.666;6.634;2022-10-17T00:31:15;7.18;;;5.53;;
12958;SDS011;6544;51.666;6.634;2022-10-17T00:33:43;7.90;;;5.43;;
12958;SDS011;6544;51.666;6.634;2022-10-17T00:36:11;10.10;;;5.90;;
12958;SDS011;6544;51.666;6.634;2022-10-17T00:38:40;7.90;;;5.90;;
12958;SDS011;6544;51.666;6.634;2022-10-17T00:41:08;13.32;;;5.80;;
12958;SDS011;6544;51.666;6.634;2022-10-17T00:43:53;6.38;;;5.65;;
12958;SDS011;6544;51.666;6.634;2022-10-17T00:46:23;9.52;;;5.97;;
12958;SDS011;6544;51.666;6.634;2022-10-17T00:48:51;11.32;;;6.32;;
12958;SDS011;6544;51.666;6.634;2022-10-17T00:51:22;6.72;;;6.05;;
12958;SDS011;6544;51.666;6.634;2022-10-17T00:53:53;8.80;;;6.82;;
12958;SDS011;6544;51.666;6.634;2022-10-17T00:56:21;7.40;;;6.47;;
12958;SDS011;6544;51.666;6.634;2022-10-17T00:58:48;10.25;;;6.90;;
12958;SDS011;6544;51.666;6.634;2022-10-17T01:01:15;11.68;;;7.20;;
12958;SDS011;6544;51.666;6.634;2022-10-17T01:03:42;8.27;;;6.90;;
12958;SDS011;6544;51.666;6.634;2022-10-17T01:06:09;13.18;;;6.70;;
12958;SDS011;6544;51.666;6.634;2022-10-17T01:08:38;7.85;;;6.55;;
12958;SDS011;6544;51.666;6.634;2022-10-17T01:11:07;9.27;;;7.15;;
12958;SDS011;6544;51.666;6.634;2022-10-17T01:13:45;7.32;;;6.35;;
12958;SDS011;6544;51.666;6.634;2022-10-17T01:16:17;12.27;;;7.30;;
12958;SDS011;6544;51.666;6.634;2022-10-17T01:18:55;8.15;;;6.75;;
12958;SDS011;6544;51.666;6.634;2022-10-17T01:21:36;9.07;;;6.95;;
12958;SDS011;6544;51.666;6.634;2022-10-17T01:27:20;9.65;;;7.32;;
12958;SDS011;6544;51.666;6.634;2022-10-17T01:30:28;11.35;;;7.47;;
12958;SDS011;6544;51.666;6.634;2022-10-17T01:33:18;10.15;;;7.28;;
12958;SDS011;6544;51.666;6.634;2022-10-17T01:35:56;12.98;;;7.53;;
12958;SDS011;6544;51.666;6.634;2022-10-17T01:38:27;14.50;;;7.25;;
12958;SDS011;6544;51.666;6.634;2022-10-17T01:40:59;13.30;;;7.68;;
12958;SDS011;6544;51.666;6.634;2022-10-17T01:43:31;11.75;;;8.05;;
12958;SDS011;6544;51.666;6.634;2022-10-17T01:46:04;15.88;;;7.25;;
12958;SDS011;6544;51.666;6.634;2022-10-17T01:48:39;8.38;;;6.85;;
12958;SDS011;6544;51.666;6.634;2022-10-17T01:51:11;9.05;;;6.78;;
12958;SDS011;6544;51.666;6.634;2022-10-17T01:53:44;14.40;;;7.18;;
12958;SDS011;6544;51.666;6.634;2022-10-17T01:56:15;15.52;;;6.57;;
12958;SDS011;6544;51.666;6.634;2022-10-17T01:58:44;12.35;;;7.60;;
12958;SDS011;6544;51.666;6.634;2022-10-17T02:01:15;9.52;;;7.47;;
12958;SDS011;6544;51.666;6.634;2022-10-17T02:03:45;14.52;;;7.97;;
12958;SDS011;6544;51.666;6.634;2022-10-17T02:06:15;12.45;;;7.55;;
12958;SDS011;6544;51.666;6.634;2022-10-17T02:08:43;9.18;;;7.00;;
12958;SDS011;6544;51.666;6.634;2022-10-17T02:11:12;8.35;;;6.85;;
12958;SDS011;6544;51.666;6.634;2022-10-17T02:13:46;11.20;;;7.57;;
12958;SDS011;6544;51.666;6.634;2022-10-17T02:16:37;9.40;;;7.03;;
12958;SDS011;6544;51.666;6.634;2022-10-17T02:22:10;14.65;;;8.63;;
12958;SDS011;6544;51.666;6.634;2022-10-17T02:24:44;11.68;;;8.23;;
12958;SDS011;6544;51.666;6.634;2022-10-17T02:27:15;14.55;;;9.13;;
12958;SDS011;6544;51.666;6.634;2022-10-17T02:29:51;14.57;;;9.07;;
12958;SDS011;6544;51.666;6.634;2022-10-17T02:32:26;14.00;;;8.90;;
12958;SDS011;6544;51.666;6.634;2022-10-17T02:35:00;15.48;;;9.07;;
12958;SDS011;6544;51.666;6.634;2022-10-17T02:37:29;13.60;;;9.25;;
12958;SDS011;6544;51.666;6.634;2022-10-17T02:40:00;11.48;;;8.00;;
12958;SDS011;6544;51.666;6.634;2022-10-17T02:42:28;16.10;;;9.23;;
12958;SDS011;6544;51.666;6.634;2022-10-17T02:44:57;18.83;;;10.13;;
12958;SDS011;6544;51.666;6.634;2022-10-17T02:47:26;16.80;;;10.02;;
12958;SDS011;6544;51.666;6.634;2022-10-17T02:49:57;15.80;;;8.65;;
12958;SDS011;6544;51.666;6.634;2022-10-17T02:52:27;14.68;;;8.75;;
12958;SDS011;6544;51.666;6.634;2022-10-17T02:55:01;15.02;;;9.13;;
12958;SDS011;6544;51.666;6.634;2022-10-17T02:57:33;13.40;;;8.82;;
12958;SDS011;6544;51.666;6.634;2022-10-17T03:00:03;13.13;;;8.77;;
12958;SDS011;6544;51.666;6.634;2022-10-17T03:02:37;15.93;;;9.07;;
12958;SDS011;6544;51.666;6.634;2022-10-17T03:05:09;18.08;;;9.18;;
12958;SDS011;6544;51.666;6.634;2022-10-17T03:07:39;11.30;;;8.80;;
12958;SDS011;6544;51.666;6.634;2022-10-17T03:10:06;14.40;;;7.72;;
12958;SDS011;6544;51.666;6.634;2022-10-17T03:12:33;11.75;;;8.60;;
12958;SDS011;6544;51.666;6.634;2022-10-17T03:15:00;12.73;;;7.05;;
12958;SDS011;6544;51.666;6.634;2022-10-17T03:17:29;11.30;;;7.13;;
12958;SDS011;6544;51.666;6.634;2022-10-17T03:19:56;8.20;;;7.03;;
12958;SDS011;6544;51.666;6.634;2022-10-17T03:22:23;11.13;;;7.88;;
12958;SDS011;6544;51.666;6.634;2022-10-17T03:24:51;9.05;;;6.93;;
12958;SDS011;6544;51.666;6.634;2022-10-17T03:27:18;13.00;;;7.70;;
12958;SDS011;6544;51.666;6.634;2022-10-17T03:29:45;10.38;;;6.20;;
12958;SDS011;6544;51.666;6.634;2022-10-17T03:32:12;9.52;;;6.70;;
12958;SDS011;6544;51.666;6.634;2022-10-17T03:34:39;13.48;;;7.47;;
12958;SDS011;6544;51.666;6.634;2022-10-17T03:37:06;10.98;;;7.53;;
12958;SDS011;6544;51.666;6.634;2022-10-17T03:39:33;10.52;;;7.85;;
12958;SDS011;6544;51.666;6.634;2022-10-17T03:42:01;10.23;;;6.53;;
12958;SDS011;6544;51.666;6.634;2022-10-17T03:44:28;8.70;;;7.05;;
12958;SDS011;6544;51.666;6.634;2022-10-17T03:46:55;8.02;;;7.00;;
12958;SDS011;6544;51.666;6.634;2022-10-17T03:49:22;11.32;;;6.45;;
12958;SDS011;6544;51.666;6.634;2022-10-17T03:51:49;7.40;;;6.20;;
12958;SDS011;6544;51.666;6.634;2022-10-17T03:54:16;10.73;;;6.32;;
12958;SDS011;6544;51.666;6.634;2022-10-17T03:56:43;8.60;;;6.32;;
12958;SDS011;6544;51.666;6.634;2022-10-17T03:59:12;10.25;;;6.40;;
12958;SDS011;6544;51.666;6.634;2022-10-17T04:01:40;10.13;;;5.93;;
12958;SDS011;6544;51.666;6.634;2022-10-17T04:04:07;9.95;;;6.82;;
12958;SDS011;6544;51.666;6.634;2022-10-17T04:06:34;9.80;;;6.93;;
12958;SDS011;6544;51.666;6.634;2022-10-17T04:09:02;7.82;;;5.78;;
12958;SDS011;6544;51.666;6.634;2022-10-17T04:11:29;12.00;;;5.90;;
12958;SDS011;6544;51.666;6.634;2022-10-17T04:13:56;9.85;;;7.18;;
12958;SDS011;6544;51.666;6.634;2022-10-17T04:16:25;13.63;;;7.07;;
12958;SDS011;6544;51.666;6.634;2022-10-17T04:18:53;12.57;;;5.68;;
12958;SDS011;6544;51.666;6.634;2022-10-17T04:21:21;10.82;;;6.10;;
12958;SDS011;6544;51.666;6.634;2022-10-17T04:23:51;9.40;;;6.35;;
12958;SDS011;6544;51.666;6.634;2022-10-17T04:26:18;11.98;;;7.00;;
12958;SDS011;6544;51.666;6.634;2022-10-17T04:28:45;9.57;;;6.35;;
12958;SDS011;6544;51.666;6.634;2022-10-17T04:31:12;13.95;;;6.18;;
12958;SDS011;6544;51.666;6.634;2022-10-17T04:33:41;9.52;;;6.25;;
12958;SDS011;6544;51.666;6.634;2022-10-17T04:36:09;8.15;;;5.75;;
12958;SDS011;6544;51.666;6.634;2022-10-17T04:38:38;9.90;;;6.00;;
12958;SDS011;6544;51.666;6.634;2022-10-17T04:41:06;7.70;;;5.50;;
12958;SDS011;6544;51.666;6.634;2022-10-17T04:43:36;9.30;;;5.35;;
12958;SDS011;6544;51.666;6.634;2022-10-17T04:46:05;9.23;;;5.40;;
12958;SDS011;6544;51.666;6.634;2022-10-17T04:48:33;8.65;;;5.72;;
12958;SDS011;6544;51.666;6.634;2022-10-17T04:51:02;9.38;;;5.40;;
12958;SDS011;6544;51.666;6.634;2022-10-17T04:53:30;11.93;;;6.03;;
12958;SDS011;6544;51.666;6.634;2022-10-17T04:55:58;9.05;;;5.80;;
12958;SDS011;6544;51.666;6.634;2022-10-17T04:58:27;10.52;;;5.72;;
12958;SDS011;6544;51.666;6.634;2022-10-17T05:00:54;13.63;;;6.88;;
12958;SDS011;6544;51.666;6.634;2022-10-17T05:03:21;9.43;;;6.00;;
12958;SDS011;6544;51.666;6.634;2022-10-17T05:05:48;11.93;;;7.32;;
12958;SDS011;6544;51.666;6.634;2022-10-17T05:08:17;9.48;;;5.97;;
12958;SDS011;6544;51.666;6.634;2022-10-17T05:10:43;9.68;;;6.47;;
12958;SDS011;6544;51.666;6.634;2022-10-17T05:13:11;9.98;;;6.00;;
12958;SDS011;6544;51.666;6.634;2022-10-17T05:15:39;11.82;;;6.75;;
12958;SDS011;6544;51.666;6.634;2022-10-17T05:18:09;12.73;;;6.03;;
12958;SDS011;6544;51.666;6.634;2022-10-17T05:20:36;10.80;;;5.53;;
12958;SDS011;6544;51.666;6.634;2022-10-17T05:23:03;8.82;;;5.10;;
12958;SDS011;6544;51.666;6.634;2022-10-17T05:25:31;10.80;;;6.38;;
12958;SDS011;6544;51.666;6.634;2022-10-17T05:27:58;7.68;;;5.20;;
12958;SDS011;6544;51.666;6.634;2022-10-17T05:30:25;7.20;;;5.00;;
12958;SDS011;6544;51.666;6.634;2022-10-17T05:32:52;11.55;;;6.40;;
12958;SDS011;6544;51.666;6.634;2022-10-17T05:35:19;7.57;;;5.32;;
12958;SDS011;6544;51.666;6.634;2022-10-17T05:37:47;8.30;;;5.18;;
12958;SDS011;6544;51.666;6.634;2022-10-17T05:40:14;9.60;;;4.60;;
12958;SDS011;6544;51.666;6.634;2022-10-17T05:42:45;7.13;;;4.70;;
12958;SDS011;6544;51.666;6.634;2022-10-17T05:45:12;7.90;;;5.43;;
12958;SDS011;6544;51.666;6.634;2022-10-17T05:47:39;11.57;;;5.97;;
12958;SDS011;6544;51.666;6.634;2022-10-17T05:50:07;10.70;;;5.18;;
12958;SDS011;6544;51.666;6.634;2022-10-17T05:52:34;8.38;;;5.38;;
12958;SDS011;6544;51.666;6.634;2022-10-17T05:55:01;8.70;;;5.57;;
12958;SDS011;6544;51.666;6.634;2022-10-17T05:57:29;6.88;;;4.78;;
12958;SDS011;6544;51.666;6.634;2022-10-17T05:59:57;11.25;;;5.57;;
12958;SDS011;6544;51.666;6.634;2022-10-17T06:02:24;7.78;;;5.53;;
12958;SDS011;6544;51.666;6.634;2022-10-17T06:04:54;8.70;;;5.10;;
12958;SDS011;6544;51.666;6.634;2022-10-17T06:07:20;12.18;;;5.97;;
12958;SDS011;6544;51.666;6.634;2022-10-17T06:09:47;7.63;;;4.90;;
12958;SDS011;6544;51.666;6.634;2022-10-17T06:12:14;8.50;;;5.90;;
12958;SDS011;6544;51.666;6.634;2022-10-17T06:14:41;12.65;;;5.53;;
12958;SDS011;6544;51.666;6.634;2022-10-17T06:17:10;12.45;;;5.13;;
12958;SDS011;6544;51.666;6.634;2022-10-17T06:19:37;7.72;;;5.20;;
12958;SDS011;6544;51.666;6.634;2022-10-17T06:22:05;8.18;;;5.53;;
12958;SDS011;6544;51.666;6.634;2022-10-17T06:24:32;7.25;;;5.10;;
12958;SDS011;6544;51.666;6.634;2022-10-17T06:26:59;9.90;;;5.07;;
12958;SDS011;6544;51.666;6.634;2022-10-17T06:29:26;8.82;;;4.85;;
12958;SDS011;6544;51.666;6.634;2022-10-17T06:31:53;8.98;;;5.25;;
12958;SDS011;6544;51.666;6.634;2022-10-17T06:34:21;16.33;;;5.57;;
12958;SDS011;6544;51.666;6.634;2022-10-17T06:36:48;7.25;;;5.18;;
12958;SDS011;6544;51.666;6.634;2022-10-17T06:39:15;11.57;;;6.05;;
12958;SDS011;6544;51.666;6.634;2022-10-17T06:41:45;10.35;;;5.63;;
12958;SDS011;6544;51.666;6.634;2022-10-17T06:44:12;14.32;;;6.30;;
12958;SDS011;6544;51.666;6.634;2022-10-17T06:46:39;9.68;;;5.53;;
12958;SDS011;6544;51.666;6.634;2022-10-17T06:49:06;10.95;;;6.43;;
12958;SDS011;6544;51.666;6.634;2022-10-17T06:51:36;10.60;;;6.28;;
12958;SDS011;6544;51.666;6.634;2022-10-17T06:54:03;12.13;;;6.10;;
12958;SDS011;6544;51.666;6.634;2022-10-17T06:56:30;11.30;;;6.10;;
12958;SDS011;6544;51.666;6.634;2022-10-17T06:58:56;11.52;;;6.40;;
12958;SDS011;6544;51.666;6.634;2022-10-17T07:01:25;14.07;;;7.30;;
12958;SDS011;6544;51.666;6.634;2022-10-17T07:03:53;11.32;;;6.35;;
12958;SDS011;6544;51.666;6.634;2022-10-17T07:06:20;13.20;;;6.35;;
12958;SDS011;6544;51.666;6.634;2022-10-17T07:08:50;10.70;;;6.20;;
12958;SDS011;6544;51.666;6.634;2022-10-17T07:11:18;9.55;;;6.25;;
12958;SDS011;6544;51.666;6.634;2022-10-17T07:13:47;14.00;;;5.93;;
12958;SDS011;6544;51.666;6.634;2022-10-17T07:16:14;15.07;;;6.57;;
12958;SDS011;6544;51.666;6.634;2022-10-17T07:18:41;10.95;;;5.50;;
12958;SDS011;6544;51.666;6.634;2022-10-17T07:21:09;8.52;;;6.30;;
12958;SDS011;6544;51.666;6.634;2022-10-17T07:23:36;9.35;;;5.63;;
12958;SDS011;6544;51.666;6.634;2022-10-17T07:26:06;14.93;;;6.05;;
12958;SDS011;6544;51.666;6.634;2022-10-17T07:28:34;10.18;;;5.88;;
12958;SDS011;6544;51.666;6.634;2022-10-17T07:31:03;8.25;;;5.43;;
12958;SDS011;6544;51.666;6.634;2022-10-17T07:33:30;7.90;;;5.28;;
12958;SDS011;6544;51.666;6.634;2022-10-17T07:35:58;8.10;;;5.72;;
12958;SDS011;6544;51.666;6.634;2022-10-17T07:38:25;12.95;;;6.63;;
12958;SDS011;6544;51.666;6.634;2022-10-17T07:40:52;10.13;;;5.45;;
12958;SDS011;6544;51.666;6.634;2022-10-17T07:43:21;10.60;;;5.53;;
12958;SDS011;6544;51.666;6.634;2022-10-17T07:45:48;11.50;;;5.65;;
12958;SDS011;6544;51.666;6.634;2022-10-17T07:48:15;8.52;;;6.20;;
12958;SDS011;6544;51.666;6.634;2022-10-17T07:50:42;14.82;;;5.75;;
12958;SDS011;6544;51.666;6.634;2022-10-17T07:53:09;10.13;;;5.53;;
12958;SDS011;6544;51.666;6.634;2022-10-17T07:55:36;12.80;;;6.32;;
12958;SDS011;6544;51.666;6.634;2022-10-17T07:58:03;13.25;;;6.00;;
12958;SDS011;6544;51.666;6.634;2022-10-17T08:00:32;14.82;;;5.63;;
12958;SDS011;6544;51.666;6.634;2022-10-17T08:02:59;12.93;;;5.70;;
12958;SDS011;6544;51.666;6.634;2022-10-17T08:05:25;15.20;;;6.68;;
12958;SDS011;6544;51.666;6.634;2022-10-17T08:07:53;12.30;;;5.47;;
12958;SDS011;6544;51.666;6.634;2022-10-17T08:10:20;9.43;;;5.53;;
12958;SDS011;6544;51.666;6.634;2022-10-17T08:12:51;13.40;;;5.45;;
12958;SDS011;6544;51.666;6.634;2022-10-17T08:15:18;9.68;;;5.15;;
12958;SDS011;6544;51.666;6.634;2022-10-17T08:17:46;10.13;;;5.10;;
12958;SDS011;6544;51.666;6.634;2022-10-17T08:20:13;10.20;;;4.90;;
12958;SDS011;6544;51.666;6.634;2022-10-17T08:22:41;10.38;;;4.43;;
12958;SDS011;6544;51.666;6.634;2022-10-17T08:25:08;12.07;;;4.53;;
12958;SDS011;6544;51.666;6.634;2022-10-17T08:27:35;11.55;;;4.75;;
12958;SDS011;6544;51.666;6.634;2022-10-17T08:30:02;8.55;;;4.03;;
12958;SDS011;6544;51.666;6.634;2022-10-17T08:32:29;9.38;;;5.20;;
12958;SDS011;6544;51.666;6.634;2022-10-17T08:34:58;8.90;;;4.13;;
12958;SDS011;6544;51.666;6.634;2022-10-17T08:37:25;7.00;;;4.28;;
12958;SDS011;6544;51.666;6.634;2022-10-17T08:39:52;10.02;;;3.75;;
12958;SDS011;6544;51.666;6.634;2022-10-17T08:42:28;8.30;;;3.95;;
12958;SDS011;6544;51.666;6.634;2022-10-17T08:45:09;5.50;;;4.10;;
12958;SDS011;6544;51.666;6.634;2022-10-17T08:47:42;8.93;;;4.40;;
12958;SDS011;6544;51.666;6.634;2022-10-17T08:50:13;8.60;;;4.88;;
12958;SDS011;6544;51.666;6.634;2022-10-17T08:52:47;7.20;;;4.32;;
12958;SDS011;6544;51.666;6.634;2022-10-17T08:55:19;8.57;;;4.10;;
12958;SDS011;6544;51.666;6.634;2022-10-17T08:57:54;7.30;;;4.07;;
12958;SDS011;6544;51.666;6.634;2022-10-17T09:00:21;11.05;;;4.65;;
12958;SDS011;6544;51.666;6.634;2022-10-17T09:02:52;10.35;;;4.13;;
12958;SDS011;6544;51.666;6.634;2022-10-17T09:05:29;7.93;;;4.07;;
12958;SDS011;6544;51.666;6.634;2022-10-17T09:08:11;5.47;;;3.85;;
12958;SDS011;6544;51.666;6.634;2022-10-17T09:10:51;8.52;;;4.10;;
12958;SDS011;6544;51.666;6.634;2022-10-17T09:13:29;6.13;;;4.07;;
12958;SDS011;6544;51.666;6.634;2022-10-17T09:16:08;6.55;;;3.85;;
12958;SDS011;6544;51.666;6.634;2022-10-17T09:18:57;7.30;;;3.60;;
12958;SDS011;6544;51.666;6.634;2022-10-17T09:21:32;6.53;;;3.83;;
12958;SDS011;6544;51.666;6.634;2022-10-17T09:24:06;10.07;;;4.20;;
12958;SDS011;6544;51.666;6.634;2022-10-17T09:26:38;9.25;;;4.10;;
12958;SDS011;6544;51.666;6.634;2022-10-17T09:29:11;8.85;;;3.72;;
12958;SDS011;6544;51.666;6.634;2022-10-17T09:31:44;7.05;;;4.28;;
12958;SDS011;6544;51.666;6.634;2022-10-17T09:34:15;8.60;;;4.00;;
12958;SDS011;6544;51.666;6.634;2022-10-17T09:36:43;9.63;;;4.20;;
12958;SDS011;6544;51.666;6.634;2022-10-17T09:39:11;6.97;;;4.32;;
12958;SDS011;6544;51.666;6.634;2022-10-17T09:41:40;8.68;;;4.97;;
12958;SDS011;6544;51.666;6.634;2022-10-17T09:44:12;5.63;;;3.60;;
12958;SDS011;6544;51.666;6.634;2022-10-17T09:46:42;9.98;;;4.07;;
12958;SDS011;6544;51.666;6.634;2022-10-17T09:49:20;7.95;;;3.80;;
12958;SDS011;6544;51.666;6.634;2022-10-17T09:51:53;9.13;;;4.00;;
12958;SDS011;6544;51.666;6.634;2022-10-17T09:54:21;11.73;;;3.50;;
12958;SDS011;6544;51.666;6.634;2022-10-17T09:56:57;9.02;;;4.38;;
12958;SDS011;6544;51.666;6.634;2022-10-17T09:59:28;5.53;;;3.60;;
12958;SDS011;6544;51.666;6.634;2022-10-17T10:02:06;8.75;;;3.97;;
12958;SDS011;6544;51.666;6.634;2022-10-17T10:04:35;7.45;;;3.78;;
12958;SDS011;6544;51.666;6.634;2022-10-17T10:07:04;9.88;;;4.43;;
12958;SDS011;6544;51.666;6.634;2022-10-17T10:09:35;11.95;;;4.15;;
12958;SDS011;6544;51.666;6.634;2022-10-17T10:12:04;6.55;;;4.10;;
12958;SDS011;6544;51.666;6.634;2022-10-17T10:14:40;15.80;;;4.40;;
12958;SDS011;6544;51.666;6.634;2022-10-17T10:17:26;4.38;;;3.45;;
12958;SDS011;6544;51.666;6.634;2022-10-17T10:19:55;9.32;;;3.90;;
12958;SDS011;6544;51.666;6.634;2022-10-17T10:22:23;7.68;;;3.75;;
12958;SDS011;6544;51.666;6.634;2022-10-17T10:25:05;5.72;;;4.10;;
12958;SDS011;6544;51.666;6.634;2022-10-17T10:27:33;8.50;;;4.43;;
12958;SDS011;6544;51.666;6.634;2022-10-17T10:30:01;7.43;;;4.45;;
12958;SDS011;6544;51.666;6.634;2022-10-17T10:32:29;7.72;;;3.80;;
12958;SDS011;6544;51.666;6.634;2022-10-17T10:34:59;7.95;;;4.20;;
12958;SDS011;6544;51.666;6.634;2022-10-17T10:37:32;10.10;;;4.07;;
12958;SDS011;6544;51.666;6.634;2022-10-17T10:40:03;9.35;;;4.32;;
12958;SDS011;6544;51.666;6.634;2022-10-17T10:42:33;10.25;;;4.50;;
12958;SDS011;6544;51.666;6.634;2022-10-17T10:45:02;5.40;;;3.70;;
12958;SDS011;6544;51.666;6.634;2022-10-17T10:47:41;5.60;;;3.55;;
12958;SDS011;6544;51.666;6.634;2022-10-17T10:50:17;8.50;;;3.95;;
12958;SDS011;6544;51.666;6.634;2022-10-17T10:52:51;6.82;;;3.95;;
12958;SDS011;6544;51.666;6.634;2022-10-17T10:55:26;5.65;;;3.90;;
12958;SDS011;6544;51.666;6.634;2022-10-17T10:57:56;6.63;;;3.95;;
12958;SDS011;6544;51.666;6.634;2022-10-17T11:00:45;8.90;;;4.80;;
12958;SDS011;6544;51.666;6.634;2022-10-17T11:03:14;6.43;;;4.13;;
12958;SDS011;6544;51.666;6.634;2022-10-17T11:05:45;12.32;;;4.90;;
12958;SDS011;6544;51.666;6.634;2022-10-17T11:08:22;14.38;;;5.50;;
12958;SDS011;6544;51.666;6.634;2022-10-17T11:10:58;10.27;;;5.35;;
12958;SDS011;6544;51.666;6.634;2022-10-17T11:13:32;10.75;;;4.63;;
12958;SDS011;6544;51.666;6.634;2022-10-17T11:16:09;11.02;;;4.80;;
12958;SDS011;6544;51.666;6.634;2022-10-17T11:18:44;10.60;;;4.82;;
12958;SDS011;6544;51.666;6.634;2022-10-17T11:21:15;9.50;;;5.22;;
12958;SDS011;6544;51.666;6.634;2022-10-17T11:23:47;9.02;;;4.60;;
12958;SDS011;6544;51.666;6.634;2022-10-17T11:26:25;10.52;;;6.18;;
12958;SDS011;6544;51.666;6.634;2022-10-17T11:28:53;12.48;;;6.07;;
12958;SDS011;6544;51.666;6.634;2022-10-17T11:31:22;10.95;;;6.30;;
12958;SDS011;6544;51.666;6.634;2022-10-17T11:33:53;8.52;;;5.80;;
12958;SDS011;6544;51.666;6.634;2022-10-17T11:36:24;11.43;;;5.75;;
12958;SDS011;6544;51.666;6.634;2022-10-17T11:38:55;12.10;;;7.03;;
12958;SDS011;6544;51.666;6.634;2022-10-17T11:41:28;13.75;;;6.88;;
12958;SDS011;6544;51.666;6.634;2022-10-17T11:44:01;13.73;;;5.80;;
12958;SDS011;6544;51.666;6.634;2022-10-17T11:46:32;9.05;;;6.20;;
12958;SDS011;6544;51.666;6.634;2022-10-17T11:49:04;11.25;;;6.28;;
12958;SDS011;6544;51.666;6.634;2022-10-17T11:51:37;8.18;;;5.50;;
12958;SDS011;6544;51.666;6.634;2022-10-17T11:54:12;7.57;;;5.30;;
12958;SDS011;6544;51.666;6.634;2022-10-17T11:56:44;11.32;;;5.53;;
12958;SDS011;6544;51.666;6.634;2022-10-17T12:02:14;10.77;;;5.50;;
12958;SDS011;6544;51.666;6.634;2022-10-17T12:04:55;10.15;;;5.93;;
12958;SDS011;6544;51.666;6.634;2022-10-17T12:07:30;11.98;;;8.13;;
12958;SDS011;6544;51.666;6.634;2022-10-17T12:10:06;17.92;;;11.40;;
12958;SDS011;6544;51.666;6.634;2022-10-17T12:12:46;14.27;;;11.27;;
12958;SDS011;6544;51.666;6.634;2022-10-17T12:15:26;19.95;;;12.18;;
12958;SDS011;6544;51.666;6.634;2022-10-17T12:17:54;16.10;;;11.40;;
12958;SDS011;6544;51.666;6.634;2022-10-17T12:20:26;10.93;;;8.30;;
12958;SDS011;6544;51.666;6.634;2022-10-17T12:23:03;15.00;;;9.75;;
12958;SDS011;6544;51.666;6.634;2022-10-17T12:25:50;12.32;;;6.72;;
12958;SDS011;6544;51.666;6.634;2022-10-17T12:28:27;10.75;;;6.70;;
12958;SDS011;6544;51.666;6.634;2022-10-17T12:30:57;11.18;;;6.93;;
12958;SDS011;6544;51.666;6.634;2022-10-17T12:33:30;13.60;;;7.47;;
12958;SDS011;6544;51.666;6.634;2022-10-17T12:48:12;13.90;;;8.52;;
12958;SDS011;6544;51.666;6.634;2022-10-17T12:51:01;10.73;;;9.20;;
12958;SDS011;6544;51.666;6.634;2022-10-17T12:53:32;17.70;;;9.40;;
12958;SDS011;6544;51.666;6.634;2022-10-17T12:56:06;16.70;;;9.43;;
12958;SDS011;6544;51.666;6.634;2022-10-17T12:58:35;16.83;;;10.40;;
12958;SDS011;6544;51.666;6.634;2022-10-17T13:01:02;17.40;;;10.38;;
12958;SDS011;6544;51.666;6.634;2022-10-17T13:03:33;11.23;;;7.97;;
12958;SDS011;6544;51.666;6.634;2022-10-17T13:06:11;10.73;;;6.93;;
12958;SDS011;6544;51.666;6.634;2022-10-17T13:08:44;10.63;;;6.30;;
12958;SDS011;6544;51.666;6.634;2022-10-17T13:11:15;13.00;;;6.45;;
12958;SDS011;6544;51.666;6.634;2022-10-17T13:13:51;16.27;;;6.43;;
12958;SDS011;6544;51.666;6.634;2022-10-17T13:16:26;7.55;;;5.53;;
12958;SDS011;6544;51.666;6.634;2022-10-17T13:18:54;13.50;;;5.60;;
12958;SDS011;6544;51.666;6.634;2022-10-17T13:21:22;12.27;;;6.30;;
12958;SDS011;6544;51.666;6.634;2022-10-17T13:23:49;11.70;;;5.38;;
12958;SDS011;6544;51.666;6.634;2022-10-17T13:26:17;8.52;;;4.68;;
12958;SDS011;6544;51.666;6.634;2022-10-17T13:28:46;10.20;;;4.68;;
12958;SDS011;6544;51.666;6.634;2022-10-17T13:31:29;8.05;;;5.90;;
12958;SDS011;6544;51.666;6.634;2022-10-17T13:33:57;8.52;;;4.88;;
12958;SDS011;6544;51.666;6.634;2022-10-17T13:36:25;8.90;;;4.63;;
12958;SDS011;6544;51.666;6.634;2022-10-17T13:38:53;6.88;;;4.47;;
12958;SDS011;6544;51.666;6.634;2022-10-17T13:41:22;12.10;;;6.20;;
12958;SDS011;6544;51.666;6.634;2022-10-17T13:43:52;9.35;;;4.50;;
12958;SDS011;6544;51.666;6.634;2022-10-17T13:46:24;7.07;;;4.47;;
12958;SDS011;6544;51.666;6.634;2022-10-17T13:48:54;6.85;;;4.80;;
12958;SDS011;6544;51.666;6.634;2022-10-17T13:51:23;8.38;;;5.22;;
12958;SDS011;6544;51.666;6.634;2022-10-17T13:53:52;11.70;;;5.53;;
12958;SDS011;6544;51.666;6.634;2022-10-17T13:56:20;12.73;;;5.72;;
12958;SDS011;6544;51.666;6.634;2022-10-17T13:58:50;9.68;;;4.50;;
12958;SDS011;6544;51.666;6.634;2022-10-17T14:01:20;9.32;;;5.43;;
12958;SDS011;6544;51.666;6.634;2022-10-17T14:03:50;12.18;;;5.60;;
12958;SDS011;6544;51.666;6.634;2022-10-17T14:06:20;8.65;;;4.35;;
12958;SDS011;6544;51.666;6.634;2022-10-17T14:08:50;10.65;;;4.70;;
12958;SDS011;6544;51.666;6.634;2022-10-17T14:11:29;11.00;;;5.22;;
12958;SDS011;6544;51.666;6.634;2022-10-17T14:13:59;11.23;;;5.60;;
12958;SDS011;6544;51.666;6.634;2022-10-17T14:16:33;11.82;;;5.82;;
12958;SDS011;6544;51.666;6.634;2022-10-17T14:19:03;12.25;;;4.97;;
12958;SDS011;6544;51.666;6.634;2022-10-17T14:21:31;12.15;;;5.82;;
12958;SDS011;6544;51.666;6.634;2022-10-17T14:24:12;7.00;;;4.90;;
12958;SDS011;6544;51.666;6.634;2022-10-17T14:26:52;10.90;;;5.93;;
12958;SDS011;6544;51.666;6.634;2022-10-17T14:29:23;10.27;;;5.10;;
12958;SDS011;6544;51.666;6.634;2022-10-17T14:32:01;8.63;;;5.47;;
12958;SDS011;6544;51.666;6.634;2022-10-17T14:34:34;10.30;;;5.43;;
12958;SDS011;6544;51.666;6.634;2022-10-17T14:37:07;13.77;;;5.63;;
12958;SDS011;6544;51.666;6.634;2022-10-17T14:39:35;9.07;;;4.95;;
12958;SDS011;6544;51.666;6.634;2022-10-17T14:42:02;9.40;;;6.13;;
12958;SDS011;6544;51.666;6.634;2022-10-17T14:44:30;10.07;;;5.70;;
12958;SDS011;6544;51.666;6.634;2022-10-17T14:47:01;14.32;;;6.40;;
12958;SDS011;6544;51.666;6.634;2022-10-17T14:49:35;13.35;;;6.45;;
12958;SDS011;6544;51.666;6.634;2022-10-17T14:52:23;6.85;;;5.05;;
12958;SDS011;6544;51.666;6.634;2022-10-17T14:54:56;14.40;;;5.13;;
12958;SDS011;6544;51.666;6.634;2022-10-17T14:57:26;10.63;;;5.95;;
12958;SDS011;6544;51.666;6.634;2022-10-17T15:00:05;7.95;;;4.90;;
12958;SDS011;6544;51.666;6.634;2022-10-17T15:02:32;12.68;;;5.80;;
12958;SDS011;6544;51.666;6.634;2022-10-17T15:05:01;12.73;;;6.60;;
12958;SDS011;6544;51.666;6.634;2022-10-17T15:07:28;7.72;;;5.45;;
12958;SDS011;6544;51.666;6.634;2022-10-17T15:09:55;10.13;;;6.43;;
12958;SDS011;6544;51.666;6.634;2022-10-17T15:12:23;12.18;;;6.85;;
12958;SDS011;6544;51.666;6.634;2022-10-17T15:14:51;8.35;;;6.18;;
12958;SDS011;6544;51.666;6.634;2022-10-17T15:17:19;11.45;;;6.78;;
12958;SDS011;6544;51.666;6.634;2022-10-17T15:19:50;13.52;;;7.55;;
12958;SDS011;6544;51.666;6.634;2022-10-17T15:22:18;9.95;;;7.18;;
12958;SDS011;6544;51.666;6.634;2022-10-17T15:24:45;12.00;;;7.95;;
12958;SDS011;6544;51.666;6.634;2022-10-17T15:27:13;11.68;;;7.85;;
12958;SDS011;6544;51.666;6.634;2022-10-17T15:29:41;12.48;;;7.18;;
12958;SDS011;6544;51.666;6.634;2022-10-17T15:32:09;12.00;;;8.30;;
12958;SDS011;6544;51.666;6.634;2022-10-17T15:34:35;11.25;;;8.35;;